sensor_id;sensor_type;location;lat;lon;timestamp;pressure;altitude;pressure_sealevel;temperature
71640;BMP280;60912;48.968;10.124;2023-05-23T00:01:28;96408.94;;;18.58
71640;BMP280;60912;48.968;10.124;2023-05-23T00:03:56;96394.28;;;18.57
71640;BMP280;60912;48.968;10.124;2023-05-23T00:06:21;96399.63;;;18.53
71640;BMP280;60912;48.968;10.124;2023-05-23T00:08:47;96402.72;;;18.36
71640;BMP280;60912;48.968;10.124;2023-05-23T00:11:12;96403.19;;;18.33
71640;BMP280;60912;48.968;10.124;2023-05-23T00:13:38;96396.41;;;18.24
71640;BMP280;60912;48.968;10.124;2023-05-23T00:16:04;96401.72;;;18.20
71640;BMP280;60912;48.968;10.124;2023-05-23T00:18:34;96401.22;;;18.12
71640;BMP280;60912;48.968;10.124;2023-05-23T00:20:59;96404.72;;;18.01
71640;BMP280;60912;48.968;10.124;2023-05-23T00:23:26;96403.34;;;17.90
71640;BMP280;60912;48.968;10.124;2023-05-23T00:25:54;96393.25;;;17.85
71640;BMP280;60912;48.968;10.124;2023-05-23T00:28:20;96398.81;;;17.85
71640;BMP280;60912;48.968;10.124;2023-05-23T00:30:46;96398.69;;;17.83
71640;BMP280;60912;48.968;10.124;2023-05-23T00:33:14;96395.56;;;17.89
71640;BMP280;60912;48.968;10.124;2023-05-23T00:35:40;96395.34;;;17.96
71640;BMP280;60912;48.968;10.124;2023-05-23T00:38:06;96399.47;;;17.95
71640;BMP280;60912;48.968;10.124;2023-05-23T00:40:32;96402.97;;;17.96
71640;BMP280;60912;48.968;10.124;2023-05-23T00:42:58;96400.47;;;18.00
71640;BMP280;60912;48.968;10.124;2023-05-23T00:45:24;96402.91;;;18.05
71640;BMP280;60912;48.968;10.124;2023-05-23T00:47:49;96405.19;;;18.09
71640;BMP280;60912;48.968;10.124;2023-05-23T00:50:15;96395.13;;;18.04
71640;BMP280;60912;48.968;10.124;2023-05-23T00:52:42;96397.94;;;18.04
71640;BMP280;60912;48.968;10.124;2023-05-23T00:55:08;96401.91;;;18.01
71640;BMP280;60912;48.968;10.124;2023-05-23T00:57:35;96400.94;;;17.96
71640;BMP280;60912;48.968;10.124;2023-05-23T01:00:06;96392.34;;;17.92
71640;BMP280;60912;48.968;10.124;2023-05-23T01:02:33;96397.13;;;17.80
71640;BMP280;60912;48.968;10.124;2023-05-23T01:05:00;96398.44;;;17.79
71640;BMP280;60912;48.968;10.124;2023-05-23T01:07:27;96399.56;;;17.86
71640;BMP280;60912;48.968;10.124;2023-05-23T01:09:52;96397.75;;;17.90
71640;BMP280;60912;48.968;10.124;2023-05-23T01:12:30;96399.69;;;17.88
71640;BMP280;60912;48.968;10.124;2023-05-23T01:15:12;96400.63;;;17.81
71640;BMP280;60912;48.968;10.124;2023-05-23T01:18:01;96411.09;;;17.71
71640;BMP280;60912;48.968;10.124;2023-05-23T01:29:31;96401.91;;;17.47
71640;BMP280;60912;48.968;10.124;2023-05-23T01:31:58;96408.88;;;17.36
71640;BMP280;60912;48.968;10.124;2023-05-23T01:34:25;96404.19;;;17.39
71640;BMP280;60912;48.968;10.124;2023-05-23T01:36:53;96410.34;;;17.37
71640;BMP280;60912;48.968;10.124;2023-05-23T01:39:22;96413.13;;;17.37
71640;BMP280;60912;48.968;10.124;2023-05-23T01:41:51;96411.06;;;17.38
71640;BMP280;60912;48.968;10.124;2023-05-23T01:44:17;96410.34;;;17.37
71640;BMP280;60912;48.968;10.124;2023-05-23T01:46:43;96410.13;;;17.24
71640;BMP280;60912;48.968;10.124;2023-05-23T01:49:11;96416.63;;;17.16
71640;BMP280;60912;48.968;10.124;2023-05-23T01:51:38;96421.03;;;17.10
71640;BMP280;60912;48.968;10.124;2023-05-23T01:54:05;96419.88;;;17.13
71640;BMP280;60912;48.968;10.124;2023-05-23T01:56:30;96415.44;;;17.20
71640;BMP280;60912;48.968;10.124;2023-05-23T01:58:56;96413.78;;;17.26
71640;BMP280;60912;48.968;10.124;2023-05-23T02:01:22;96416.13;;;17.20
71640;BMP280;60912;48.968;10.124;2023-05-23T02:03:48;96414.56;;;17.17
71640;BMP280;60912;48.968;10.124;2023-05-23T02:06:13;96420.13;;;17.17
71640;BMP280;60912;48.968;10.124;2023-05-23T02:08:38;96417.47;;;17.19
71640;BMP280;60912;48.968;10.124;2023-05-23T02:11:04;96425.97;;;17.21
71640;BMP280;60912;48.968;10.124;2023-05-23T02:13:29;96427.69;;;17.26
71640;BMP280;60912;48.968;10.124;2023-05-23T02:15:55;96415.81;;;17.26
71640;BMP280;60912;48.968;10.124;2023-05-23T02:18:20;96419.50;;;17.28
71640;BMP280;60912;48.968;10.124;2023-05-23T02:20:45;96423.13;;;17.31
71640;BMP280;60912;48.968;10.124;2023-05-23T02:23:11;96427.44;;;17.22
71640;BMP280;60912;48.968;10.124;2023-05-23T02:25:36;96426.13;;;17.23
71640;BMP280;60912;48.968;10.124;2023-05-23T02:28:02;96420.25;;;17.19
71640;BMP280;60912;48.968;10.124;2023-05-23T02:30:27;96424.78;;;17.24
71640;BMP280;60912;48.968;10.124;2023-05-23T02:32:53;96430.16;;;17.32
71640;BMP280;60912;48.968;10.124;2023-05-23T02:35:18;96424.38;;;17.39
71640;BMP280;60912;48.968;10.124;2023-05-23T02:37:43;96420.28;;;17.40
71640;BMP280;60912;48.968;10.124;2023-05-23T02:40:09;96430.50;;;17.47
71640;BMP280;60912;48.968;10.124;2023-05-23T02:42:34;96430.25;;;17.43
71640;BMP280;60912;48.968;10.124;2023-05-23T02:45:00;96437.19;;;17.33
71640;BMP280;60912;48.968;10.124;2023-05-23T02:47:25;96430.03;;;17.30
71640;BMP280;60912;48.968;10.124;2023-05-23T02:49:51;96430.88;;;17.32
71640;BMP280;60912;48.968;10.124;2023-05-23T02:52:16;96432.34;;;17.54
71640;BMP280;60912;48.968;10.124;2023-05-23T02:54:41;96436.34;;;17.73
71640;BMP280;60912;48.968;10.124;2023-05-23T02:57:07;96437.38;;;17.89
71640;BMP280;60912;48.968;10.124;2023-05-23T02:59:32;96431.72;;;17.98
71640;BMP280;60912;48.968;10.124;2023-05-23T03:01:58;96435.25;;;17.99
71640;BMP280;60912;48.968;10.124;2023-05-23T03:04:23;96436.06;;;17.90
71640;BMP280;60912;48.968;10.124;2023-05-23T03:06:48;96437.13;;;17.85
71640;BMP280;60912;48.968;10.124;2023-05-23T03:09:14;96433.16;;;17.88
71640;BMP280;60912;48.968;10.124;2023-05-23T03:11:41;96430.47;;;17.90
71640;BMP280;60912;48.968;10.124;2023-05-23T03:14:07;96438.38;;;17.93
71640;BMP280;60912;48.968;10.124;2023-05-23T03:16:32;96442.75;;;17.96
71640;BMP280;60912;48.968;10.124;2023-05-23T03:18:57;96436.56;;;17.98
71640;BMP280;60912;48.968;10.124;2023-05-23T03:21:23;96434.75;;;17.91
71640;BMP280;60912;48.968;10.124;2023-05-23T03:23:49;96445.34;;;17.83
71640;BMP280;60912;48.968;10.124;2023-05-23T03:26:14;96436.25;;;17.82
71640;BMP280;60912;48.968;10.124;2023-05-23T03:28:40;96440.41;;;17.81
71640;BMP280;60912;48.968;10.124;2023-05-23T03:31:05;96443.03;;;17.79
71640;BMP280;60912;48.968;10.124;2023-05-23T03:33:30;96439.13;;;17.73
71640;BMP280;60912;48.968;10.124;2023-05-23T03:35:56;96440.56;;;17.74
71640;BMP280;60912;48.968;10.124;2023-05-23T03:38:21;96450.28;;;17.73
71640;BMP280;60912;48.968;10.124;2023-05-23T03:40:47;96454.66;;;17.76
71640;BMP280;60912;48.968;10.124;2023-05-23T03:43:12;96460.53;;;17.70
71640;BMP280;60912;48.968;10.124;2023-05-23T03:45:37;96454.16;;;17.67
71640;BMP280;60912;48.968;10.124;2023-05-23T03:48:03;96451.22;;;17.65
71640;BMP280;60912;48.968;10.124;2023-05-23T03:50:28;96453.34;;;17.77
71640;BMP280;60912;48.968;10.124;2023-05-23T03:52:54;96455.16;;;17.84
71640;BMP280;60912;48.968;10.124;2023-05-23T03:55:20;96451.69;;;17.95
71640;BMP280;60912;48.968;10.124;2023-05-23T03:57:49;96449.19;;;17.99
71640;BMP280;60912;48.968;10.124;2023-05-23T04:00:15;96460.38;;;18.10
71640;BMP280;60912;48.968;10.124;2023-05-23T04:02:41;96461.84;;;18.11
71640;BMP280;60912;48.968;10.124;2023-05-23T04:05:06;96464.03;;;18.13
71640;BMP280;60912;48.968;10.124;2023-05-23T04:07:33;96450.97;;;18.15
71640;BMP280;60912;48.968;10.124;2023-05-23T04:10:01;96451.81;;;18.18
71640;BMP280;60912;48.968;10.124;2023-05-23T04:12:27;96452.31;;;18.26
71640;BMP280;60912;48.968;10.124;2023-05-23T04:14:55;96461.41;;;18.27
71640;BMP280;60912;48.968;10.124;2023-05-23T04:17:22;96464.00;;;18.34
71640;BMP280;60912;48.968;10.124;2023-05-23T04:19:48;96457.78;;;18.36
71640;BMP280;60912;48.968;10.124;2023-05-23T04:22:14;96464.56;;;18.33
71640;BMP280;60912;48.968;10.124;2023-05-23T04:24:39;96468.41;;;18.49
71640;BMP280;60912;48.968;10.124;2023-05-23T04:27:05;96470.72;;;18.52
71640;BMP280;60912;48.968;10.124;2023-05-23T04:29:31;96470.47;;;18.48
71640;BMP280;60912;48.968;10.124;2023-05-23T04:31:57;96472.19;;;18.53
71640;BMP280;60912;48.968;10.124;2023-05-23T04:34:22;96470.00;;;18.63
71640;BMP280;60912;48.968;10.124;2023-05-23T04:36:48;96474.88;;;18.75
71640;BMP280;60912;48.968;10.124;2023-05-23T04:39:13;96474.88;;;18.75
71640;BMP280;60912;48.968;10.124;2023-05-23T04:41:41;96473.66;;;18.78
71640;BMP280;60912;48.968;10.124;2023-05-23T04:44:10;96473.50;;;18.64
71640;BMP280;60912;48.968;10.124;2023-05-23T04:46:35;96481.16;;;18.63
71640;BMP280;60912;48.968;10.124;2023-05-23T04:49:01;96477.78;;;18.65
71640;BMP280;60912;48.968;10.124;2023-05-23T04:51:28;96477.19;;;18.66
71640;BMP280;60912;48.968;10.124;2023-05-23T04:53:53;96471.72;;;18.68
71640;BMP280;60912;48.968;10.124;2023-05-23T04:56:19;96475.31;;;18.59
71640;BMP280;60912;48.968;10.124;2023-05-23T04:58:45;96485.53;;;18.55
71640;BMP280;60912;48.968;10.124;2023-05-23T05:01:11;96479.09;;;18.52
71640;BMP280;60912;48.968;10.124;2023-05-23T05:03:36;96485.28;;;18.62
71640;BMP280;60912;48.968;10.124;2023-05-23T05:06:02;96481.06;;;18.73
71640;BMP280;60912;48.968;10.124;2023-05-23T05:08:28;96485.84;;;18.94
71640;BMP280;60912;48.968;10.124;2023-05-23T05:10:54;96485.22;;;18.95
71640;BMP280;60912;48.968;10.124;2023-05-23T05:13:19;96488.97;;;19.00
71640;BMP280;60912;48.968;10.124;2023-05-23T05:15:45;96495.03;;;18.85
71640;BMP280;60912;48.968;10.124;2023-05-23T05:18:11;96491.63;;;18.75
71640;BMP280;60912;48.968;10.124;2023-05-23T05:20:37;96490.03;;;18.72
71640;BMP280;60912;48.968;10.124;2023-05-23T05:23:03;96494.28;;;18.73
71640;BMP280;60912;48.968;10.124;2023-05-23T05:25:28;96498.94;;;18.80
71640;BMP280;60912;48.968;10.124;2023-05-23T05:27:59;96498.19;;;18.91
71640;BMP280;60912;48.968;10.124;2023-05-23T05:30:26;96492.34;;;18.87
71640;BMP280;60912;48.968;10.124;2023-05-23T05:32:51;96500.28;;;18.90
71640;BMP280;60912;48.968;10.124;2023-05-23T05:35:16;96504.38;;;18.78
71640;BMP280;60912;48.968;10.124;2023-05-23T05:37:42;96507.53;;;18.72
71640;BMP280;60912;48.968;10.124;2023-05-23T05:40:07;96506.09;;;18.83
71640;BMP280;60912;48.968;10.124;2023-05-23T05:42:34;96506.31;;;18.87
71640;BMP280;60912;48.968;10.124;2023-05-23T05:44:59;96499.56;;;18.90
71640;BMP280;60912;48.968;10.124;2023-05-23T05:47:25;96509.88;;;19.10
71640;BMP280;60912;48.968;10.124;2023-05-23T05:49:50;96508.41;;;19.44
71640;BMP280;60912;48.968;10.124;2023-05-23T05:52:15;96507.09;;;19.94
71640;BMP280;60912;48.968;10.124;2023-05-23T05:54:41;96500.06;;;20.43
71640;BMP280;60912;48.968;10.124;2023-05-23T05:57:06;96509.56;;;20.63
71640;BMP280;60912;48.968;10.124;2023-05-23T05:59:31;96500.94;;;20.73
71640;BMP280;60912;48.968;10.124;2023-05-23T06:01:57;96508.31;;;21.19
71640;BMP280;60912;48.968;10.124;2023-05-23T06:04:22;96506.28;;;21.62
71640;BMP280;60912;48.968;10.124;2023-05-23T06:06:47;96501.78;;;22.14
71640;BMP280;60912;48.968;10.124;2023-05-23T06:09:13;96496.72;;;22.86
71640;BMP280;60912;48.968;10.124;2023-05-23T06:11:38;96499.19;;;23.10
71640;BMP280;60912;48.968;10.124;2023-05-23T06:14:05;96497.59;;;23.22
71640;BMP280;60912;48.968;10.124;2023-05-23T06:16:31;96507.19;;;23.66
71640;BMP280;60912;48.968;10.124;2023-05-23T06:18:56;96502.38;;;23.69
71640;BMP280;60912;48.968;10.124;2023-05-23T06:21:21;96507.06;;;24.15
71640;BMP280;60912;48.968;10.124;2023-05-23T06:23:47;96508.47;;;24.34
71640;BMP280;60912;48.968;10.124;2023-05-23T06:26:12;96511.41;;;24.55
71640;BMP280;60912;48.968;10.124;2023-05-23T06:28:38;96511.06;;;24.65
71640;BMP280;60912;48.968;10.124;2023-05-23T06:31:06;96513.34;;;24.51
71640;BMP280;60912;48.968;10.124;2023-05-23T06:33:34;96514.50;;;24.44
71640;BMP280;60912;48.968;10.124;2023-05-23T06:35:59;96514.66;;;24.30
71640;BMP280;60912;48.968;10.124;2023-05-23T06:38:26;96506.81;;;24.64
71640;BMP280;60912;48.968;10.124;2023-05-23T06:40:51;96510.69;;;24.92
71640;BMP280;60912;48.968;10.124;2023-05-23T06:43:17;96508.78;;;25.18
71640;BMP280;60912;48.968;10.124;2023-05-23T06:45:44;96518.47;;;25.33
71640;BMP280;60912;48.968;10.124;2023-05-23T06:48:10;96520.94;;;24.83
71640;BMP280;60912;48.968;10.124;2023-05-23T06:50:35;96523.22;;;24.69
71640;BMP280;60912;48.968;10.124;2023-05-23T06:53:01;96518.13;;;24.46
71640;BMP280;60912;48.968;10.124;2023-05-23T06:55:26;96530.19;;;23.60
71640;BMP280;60912;48.968;10.124;2023-05-23T06:57:52;96522.28;;;23.24
71640;BMP280;60912;48.968;10.124;2023-05-23T07:00:18;96526.06;;;23.30
71640;BMP280;60912;48.968;10.124;2023-05-23T07:02:43;96533.88;;;23.16
71640;BMP280;60912;48.968;10.124;2023-05-23T07:05:13;96540.16;;;22.83
71640;BMP280;60912;48.968;10.124;2023-05-23T07:07:39;96535.63;;;23.08
71640;BMP280;60912;48.968;10.124;2023-05-23T07:10:05;96536.53;;;23.61
71640;BMP280;60912;48.968;10.124;2023-05-23T07:12:31;96542.13;;;23.43
71640;BMP280;60912;48.968;10.124;2023-05-23T07:14:56;96540.03;;;23.13
71640;BMP280;60912;48.968;10.124;2023-05-23T07:17:21;96547.38;;;22.28
71640;BMP280;60912;48.968;10.124;2023-05-23T07:19:47;96547.16;;;22.08
71640;BMP280;60912;48.968;10.124;2023-05-23T07:22:12;96543.13;;;22.27
71640;BMP280;60912;48.968;10.124;2023-05-23T07:24:37;96553.38;;;22.36
71640;BMP280;60912;48.968;10.124;2023-05-23T07:27:03;96552.38;;;22.29
71640;BMP280;60912;48.968;10.124;2023-05-23T07:29:28;96555.41;;;21.90
71640;BMP280;60912;48.968;10.124;2023-05-23T07:31:54;96566.13;;;21.40
71640;BMP280;60912;48.968;10.124;2023-05-23T07:34:19;96556.50;;;21.56
71640;BMP280;60912;48.968;10.124;2023-05-23T07:36:45;96568.41;;;21.84
71640;BMP280;60912;48.968;10.124;2023-05-23T07:39:11;96563.75;;;22.18
71640;BMP280;60912;48.968;10.124;2023-05-23T07:41:37;96565.38;;;22.52
71640;BMP280;60912;48.968;10.124;2023-05-23T07:44:02;96567.53;;;22.83
71640;BMP280;60912;48.968;10.124;2023-05-23T07:46:28;96572.22;;;22.78
71640;BMP280;60912;48.968;10.124;2023-05-23T07:48:53;96561.22;;;22.53
71640;BMP280;60912;48.968;10.124;2023-05-23T07:51:19;96563.47;;;22.41
71640;BMP280;60912;48.968;10.124;2023-05-23T07:53:46;96558.47;;;22.39
71640;BMP280;60912;48.968;10.124;2023-05-23T07:56:11;96568.81;;;22.35
71640;BMP280;60912;48.968;10.124;2023-05-23T07:58:37;96565.47;;;22.25
71640;BMP280;60912;48.968;10.124;2023-05-23T08:01:02;96574.59;;;22.10
71640;BMP280;60912;48.968;10.124;2023-05-23T08:03:29;96571.97;;;22.14
71640;BMP280;60912;48.968;10.124;2023-05-23T08:05:55;96573.66;;;22.05
71640;BMP280;60912;48.968;10.124;2023-05-23T08:08:20;96577.13;;;21.90
71640;BMP280;60912;48.968;10.124;2023-05-23T08:10:46;96576.59;;;21.93
71640;BMP280;60912;48.968;10.124;2023-05-23T08:13:11;96576.38;;;22.03
71640;BMP280;60912;48.968;10.124;2023-05-23T08:15:37;96570.50;;;22.13
71640;BMP280;60912;48.968;10.124;2023-05-23T08:18:03;96575.59;;;22.16
71640;BMP280;60912;48.968;10.124;2023-05-23T08:20:29;96567.28;;;22.18
71640;BMP280;60912;48.968;10.124;2023-05-23T08:23:00;96569.72;;;22.10
71640;BMP280;60912;48.968;10.124;2023-05-23T08:25:27;96582.41;;;21.98
71640;BMP280;60912;48.968;10.124;2023-05-23T08:27:57;96587.22;;;21.54
71640;BMP280;60912;48.968;10.124;2023-05-23T08:30:23;96589.38;;;21.42
71640;BMP280;60912;48.968;10.124;2023-05-23T08:32:50;96587.09;;;21.25
71640;BMP280;60912;48.968;10.124;2023-05-23T08:35:16;96594.00;;;21.10
71640;BMP280;60912;48.968;10.124;2023-05-23T08:37:42;96594.22;;;21.01
71640;BMP280;60912;48.968;10.124;2023-05-23T08:40:13;96595.44;;;20.98
71640;BMP280;60912;48.968;10.124;2023-05-23T08:42:42;96604.56;;;20.73
71640;BMP280;60912;48.968;10.124;2023-05-23T08:45:08;96598.03;;;20.68
71640;BMP280;60912;48.968;10.124;2023-05-23T08:47:35;96605.91;;;20.84
71640;BMP280;60912;48.968;10.124;2023-05-23T08:50:04;96594.31;;;21.03
71640;BMP280;60912;48.968;10.124;2023-05-23T08:52:32;96603.19;;;21.24
71640;BMP280;60912;48.968;10.124;2023-05-23T08:54:59;96601.56;;;21.33
71640;BMP280;60912;48.968;10.124;2023-05-23T08:57:26;96607.88;;;21.74
71640;BMP280;60912;48.968;10.124;2023-05-23T08:59:51;96599.09;;;22.52
71640;BMP280;60912;48.968;10.124;2023-05-23T09:02:17;96600.25;;;23.39
71640;BMP280;60912;48.968;10.124;2023-05-23T09:04:42;96594.41;;;23.66
71640;BMP280;60912;48.968;10.124;2023-05-23T09:07:08;96597.53;;;23.41
71640;BMP280;60912;48.968;10.124;2023-05-23T09:09:34;96596.47;;;23.17
71640;BMP280;60912;48.968;10.124;2023-05-23T09:11:59;96607.00;;;23.32
71640;BMP280;60912;48.968;10.124;2023-05-23T09:14:27;96607.28;;;22.77
71640;BMP280;60912;48.968;10.124;2023-05-23T09:17:00;96607.31;;;22.93
71640;BMP280;60912;48.968;10.124;2023-05-23T09:19:26;96611.50;;;23.08
71640;BMP280;60912;48.968;10.124;2023-05-23T09:21:53;96613.44;;;23.34
71640;BMP280;60912;48.968;10.124;2023-05-23T09:24:18;96609.19;;;24.00
71640;BMP280;60912;48.968;10.124;2023-05-23T09:26:48;96614.72;;;24.49
71640;BMP280;60912;48.968;10.124;2023-05-23T09:29:15;96612.44;;;24.80
71640;BMP280;60912;48.968;10.124;2023-05-23T09:31:43;96614.31;;;24.74
71640;BMP280;60912;48.968;10.124;2023-05-23T09:34:08;96610.59;;;25.07
71640;BMP280;60912;48.968;10.124;2023-05-23T09:36:34;96615.66;;;25.10
71640;BMP280;60912;48.968;10.124;2023-05-23T09:39:03;96622.97;;;24.80
71640;BMP280;60912;48.968;10.124;2023-05-23T09:41:33;96616.50;;;23.89
71640;BMP280;60912;48.968;10.124;2023-05-23T09:44:04;96618.94;;;23.97
71640;BMP280;60912;48.968;10.124;2023-05-23T09:46:30;96615.63;;;23.85
71640;BMP280;60912;48.968;10.124;2023-05-23T09:48:55;96618.22;;;24.14
71640;BMP280;60912;48.968;10.124;2023-05-23T09:51:22;96614.47;;;24.43
71640;BMP280;60912;48.968;10.124;2023-05-23T09:53:48;96621.69;;;24.83
71640;BMP280;60912;48.968;10.124;2023-05-23T09:56:17;96629.31;;;24.98
71640;BMP280;60912;48.968;10.124;2023-05-23T09:58:47;96627.88;;;24.79
71640;BMP280;60912;48.968;10.124;2023-05-23T10:01:13;96628.63;;;24.27
71640;BMP280;60912;48.968;10.124;2023-05-23T10:06:24;96636.47;;;23.95
71640;BMP280;60912;48.968;10.124;2023-05-23T10:08:56;96640.91;;;24.00
71640;BMP280;60912;48.968;10.124;2023-05-23T10:14:08;96640.56;;;23.43
71640;BMP280;60912;48.968;10.124;2023-05-23T10:19:42;96640.94;;;23.36
71640;BMP280;60912;48.968;10.124;2023-05-23T10:22:11;96629.44;;;23.63
71640;BMP280;60912;48.968;10.124;2023-05-23T10:24:38;96633.09;;;23.50
71640;BMP280;60912;48.968;10.124;2023-05-23T10:27:05;96638.00;;;23.49
71640;BMP280;60912;48.968;10.124;2023-05-23T10:29:31;96633.78;;;23.66
71640;BMP280;60912;48.968;10.124;2023-05-23T10:31:58;96646.91;;;23.59
71640;BMP280;60912;48.968;10.124;2023-05-23T10:34:33;96645.25;;;23.39
71640;BMP280;60912;48.968;10.124;2023-05-23T10:37:03;96644.31;;;23.81
71640;BMP280;60912;48.968;10.124;2023-05-23T10:39:41;96639.66;;;24.21
71640;BMP280;60912;48.968;10.124;2023-05-23T10:42:15;96636.56;;;23.97
71640;BMP280;60912;48.968;10.124;2023-05-23T10:44:41;96653.94;;;23.76
71640;BMP280;60912;48.968;10.124;2023-05-23T10:47:06;96652.63;;;24.46
71640;BMP280;60912;48.968;10.124;2023-05-23T10:49:39;96651.00;;;24.23
71640;BMP280;60912;48.968;10.124;2023-05-23T10:52:05;96640.09;;;23.98
71640;BMP280;60912;48.968;10.124;2023-05-23T10:57:05;96663.91;;;24.46
71640;BMP280;60912;48.968;10.124;2023-05-23T10:59:31;96656.88;;;24.82
71640;BMP280;60912;48.968;10.124;2023-05-23T11:01:56;96659.78;;;24.66
71640;BMP280;60912;48.968;10.124;2023-05-23T11:04:26;96665.78;;;24.74
71640;BMP280;60912;48.968;10.124;2023-05-23T11:06:53;96657.72;;;24.49
71640;BMP280;60912;48.968;10.124;2023-05-23T11:09:19;96660.13;;;24.39
71640;BMP280;60912;48.968;10.124;2023-05-23T11:19:37;96663.47;;;23.69
71640;BMP280;60912;48.968;10.124;2023-05-23T11:22:06;96661.81;;;23.95
71640;BMP280;60912;48.968;10.124;2023-05-23T11:24:48;96665.84;;;23.59
71640;BMP280;60912;48.968;10.124;2023-05-23T11:27:39;96671.03;;;22.88
71640;BMP280;60912;48.968;10.124;2023-05-23T11:32:34;96674.91;;;22.23
71640;BMP280;60912;48.968;10.124;2023-05-23T11:35:04;96683.22;;;21.93
71640;BMP280;60912;48.968;10.124;2023-05-23T11:37:30;96679.19;;;22.10
71640;BMP280;60912;48.968;10.124;2023-05-23T11:39:56;96684.47;;;22.18
71640;BMP280;60912;48.968;10.124;2023-05-23T11:42:22;96679.06;;;22.22
71640;BMP280;60912;48.968;10.124;2023-05-23T11:44:52;96675.19;;;22.42
71640;BMP280;60912;48.968;10.124;2023-05-23T11:47:17;96674.31;;;22.40
71640;BMP280;60912;48.968;10.124;2023-05-23T11:49:46;96674.75;;;22.48
71640;BMP280;60912;48.968;10.124;2023-05-23T11:52:12;96672.38;;;22.72
71640;BMP280;60912;48.968;10.124;2023-05-23T11:54:41;96661.28;;;22.60
71640;BMP280;60912;48.968;10.124;2023-05-23T11:57:08;96660.72;;;22.93
71640;BMP280;60912;48.968;10.124;2023-05-23T11:59:33;96657.97;;;23.40
71640;BMP280;60912;48.968;10.124;2023-05-23T12:02:01;96650.75;;;23.84
71640;BMP280;60912;48.968;10.124;2023-05-23T12:04:26;96649.09;;;24.45
71640;BMP280;60912;48.968;10.124;2023-05-23T12:06:52;96653.81;;;24.41
71640;BMP280;60912;48.968;10.124;2023-05-23T12:09:18;96645.13;;;24.17
71640;BMP280;60912;48.968;10.124;2023-05-23T12:11:43;96642.38;;;24.19
71640;BMP280;60912;48.968;10.124;2023-05-23T12:14:13;96646.72;;;24.04
71640;BMP280;60912;48.968;10.124;2023-05-23T12:16:42;96647.66;;;23.78
71640;BMP280;60912;48.968;10.124;2023-05-23T12:19:07;96656.16;;;23.46
71640;BMP280;60912;48.968;10.124;2023-05-23T12:21:43;96653.41;;;23.64
71640;BMP280;60912;48.968;10.124;2023-05-23T12:24:19;96647.63;;;23.60
71640;BMP280;60912;48.968;10.124;2023-05-23T12:26:57;96646.63;;;23.53
71640;BMP280;60912;48.968;10.124;2023-05-23T12:29:33;96639.63;;;23.70
71640;BMP280;60912;48.968;10.124;2023-05-23T12:32:00;96637.28;;;23.49
71640;BMP280;60912;48.968;10.124;2023-05-23T12:34:27;96643.63;;;23.34
71640;BMP280;60912;48.968;10.124;2023-05-23T12:36:56;96641.00;;;23.07
71640;BMP280;60912;48.968;10.124;2023-05-23T12:39:24;96648.91;;;23.10
71640;BMP280;60912;48.968;10.124;2023-05-23T12:41:53;96648.13;;;22.94
71640;BMP280;60912;48.968;10.124;2023-05-23T12:44:20;96651.06;;;22.67
71640;BMP280;60912;48.968;10.124;2023-05-23T12:46:46;96646.94;;;22.54
71640;BMP280;60912;48.968;10.124;2023-05-23T12:49:12;96645.81;;;22.75
71640;BMP280;60912;48.968;10.124;2023-05-23T12:51:38;96644.09;;;22.68
71640;BMP280;60912;48.968;10.124;2023-05-23T12:54:04;96648.81;;;22.79
71640;BMP280;60912;48.968;10.124;2023-05-23T12:56:29;96643.16;;;22.63
71640;BMP280;60912;48.968;10.124;2023-05-23T12:58:54;96646.94;;;22.54
71640;BMP280;60912;48.968;10.124;2023-05-23T13:01:20;96636.66;;;22.74
71640;BMP280;60912;48.968;10.124;2023-05-23T13:03:45;96643.72;;;22.60
71640;BMP280;60912;48.968;10.124;2023-05-23T13:06:11;96645.69;;;22.57
71640;BMP280;60912;48.968;10.124;2023-05-23T13:08:36;96638.47;;;22.68
71640;BMP280;60912;48.968;10.124;2023-05-23T13:11:02;96648.81;;;22.79
71640;BMP280;60912;48.968;10.124;2023-05-23T13:13:28;96658.22;;;22.70
71640;BMP280;60912;48.968;10.124;2023-05-23T13:15:54;96645.78;;;22.59
71640;BMP280;60912;48.968;10.124;2023-05-23T13:18:20;96656.41;;;22.61
71640;BMP280;60912;48.968;10.124;2023-05-23T13:20:45;96645.38;;;22.51
71640;BMP280;60912;48.968;10.124;2023-05-23T13:23:11;96650.75;;;22.31
71640;BMP280;60912;48.968;10.124;2023-05-23T13:25:36;96655.94;;;22.66
71640;BMP280;60912;48.968;10.124;2023-05-23T13:28:05;96649.50;;;22.93
71640;BMP280;60912;48.968;10.124;2023-05-23T13:30:31;96652.50;;;23.44
71640;BMP280;60912;48.968;10.124;2023-05-23T13:32:56;96650.78;;;23.68
71640;BMP280;60912;48.968;10.124;2023-05-23T13:35:22;96649.69;;;23.75
71640;BMP280;60912;48.968;10.124;2023-05-23T13:37:47;96650.69;;;23.66
71640;BMP280;60912;48.968;10.124;2023-05-23T13:40:17;96646.16;;;23.12
71640;BMP280;60912;48.968;10.124;2023-05-23T13:42:43;96640.06;;;23.02
71640;BMP280;60912;48.968;10.124;2023-05-23T13:45:09;96644.72;;;23.11
71640;BMP280;60912;48.968;10.124;2023-05-23T13:47:34;96643.06;;;22.90
71640;BMP280;60912;48.968;10.124;2023-05-23T13:50:02;96638.38;;;23.11
71640;BMP280;60912;48.968;10.124;2023-05-23T13:52:28;96635.91;;;22.74
71640;BMP280;60912;48.968;10.124;2023-05-23T13:54:53;96642.00;;;22.97
71640;BMP280;60912;48.968;10.124;2023-05-23T13:57:18;96645.13;;;22.90
71640;BMP280;60912;48.968;10.124;2023-05-23T13:59:44;96632.19;;;23.30
71640;BMP280;60912;48.968;10.124;2023-05-23T14:02:09;96636.72;;;23.68
71640;BMP280;60912;48.968;10.124;2023-05-23T14:04:35;96641.72;;;23.87
71640;BMP280;60912;48.968;10.124;2023-05-23T14:07:01;96637.44;;;23.69
71640;BMP280;60912;48.968;10.124;2023-05-23T14:09:27;96644.81;;;23.44
71640;BMP280;60912;48.968;10.124;2023-05-23T14:11:52;96645.25;;;23.08
71640;BMP280;60912;48.968;10.124;2023-05-23T14:14:17;96645.75;;;22.73
71640;BMP280;60912;48.968;10.124;2023-05-23T14:16:43;96649.41;;;22.62
71640;BMP280;60912;48.968;10.124;2023-05-23T14:19:08;96645.69;;;22.57
71640;BMP280;60912;48.968;10.124;2023-05-23T14:21:34;96652.81;;;22.89
71640;BMP280;60912;48.968;10.124;2023-05-23T14:24:00;96644.31;;;23.03